Time;durP1;ratioP1;P1;durP2;ratioP2;P2;SDS_P1;SDS_P2;PMS_P1;PMS_P2;Temp;Humidity;BMP_temperature;BMP_pressure;BME280_temperature;BME280_humidity;BME280_pressure;Samples;Min_cycle;Max_cycle;Signal;HPM_P1;HPM_P2
2023/06/16 03:53:16;;;;;;;11.48;5.15;;;14.10;99.90;;;;;;5312967;22;20078;-70
2023/06/16 03:55:42;;;;;;;9.27;5.50;;;14.20;99.90;;;;;;5115798;27;20046;-69
2023/06/16 03:58:07;;;;;;;17.65;5.65;;;14.20;99.90;;;;;;5116052;27;20398;-70
2023/06/16 04:00:33;;;;;;;11.82;5.70;;;14.30;99.90;;;;;;5098839;27;20054;-69
2023/06/16 04:02:59;;;;;;;10.88;5.88;;;14.40;99.90;;;;;;5083356;27;20039;-71
2023/06/16 04:05:24;;;;;;;11.38;5.78;;;14.30;99.90;;;;;;5116759;27;20083;-70
2023/06/16 04:07:51;;;;;;;10.73;6.07;;;14.30;99.90;;;;;;5099705;27;20043;-68
2023/06/16 04:10:17;;;;;;;9.93;5.93;;;14.40;99.90;;;;;;5134079;27;20479;-70
2023/06/16 04:12:42;;;;;;;10.95;6.45;;;14.40;99.90;;;;;;5134128;27;20043;-69
2023/06/16 04:15:08;;;;;;;12.05;7.00;;;14.40;99.90;;;;;;5098721;27;20101;-69
2023/06/16 04:17:34;;;;;;;13.15;6.97;;;14.50;99.90;;;;;;5096143;27;20337;-70
2023/06/16 04:20:00;;;;;;;14.95;7.90;;;14.50;99.90;;;;;;5131590;27;20115;-69
2023/06/16 04:22:25;;;;;;;12.15;7.78;;;14.50;99.90;;;;;;5098185;27;20058;-69
2023/06/16 04:24:51;;;;;;;14.45;7.57;;;14.50;99.90;;;;;;5115451;27;20039;-70
2023/06/16 04:27:17;;;;;;;11.52;8.00;;;14.50;99.90;;;;;;5133365;27;20095;-69
2023/06/16 04:29:43;;;;;;;15.95;8.60;;;14.40;99.90;;;;;;5126585;27;20482;-69
2023/06/16 04:32:11;;;;;;;16.52;8.73;;;14.40;99.90;;;;;;5113198;27;20046;-70
2023/06/16 04:34:40;;;;;;;17.65;9.02;;;14.30;99.90;;;;;;5135094;27;20468;-70
2023/06/16 04:37:09;;;;;;;15.68;9.32;;;14.30;99.90;;;;;;5120596;27;20128;-69
2023/06/16 04:39:35;;;;;;;18.63;10.13;;;14.30;99.90;;;;;;5117279;28;20108;-70
2023/06/16 04:42:02;;;;;;;18.27;10.18;;;14.30;99.90;;;;;;5133572;27;20078;-70
2023/06/16 04:44:28;;;;;;;;;;;14.30;99.90;;;;;;5114024;28;20047;-70
2023/06/16 04:46:54;;;;;;;14.50;9.60;;;14.30;99.90;;;;;;5133420;27;19919;-69
2023/06/16 04:49:20;;;;;;;18.63;10.10;;;14.30;99.90;;;;;;5133136;28;20126;-72
2023/06/16 04:51:46;;;;;;;14.82;10.50;;;14.30;99.90;;;;;;5098303;27;20134;-70
2023/06/16 04:54:12;;;;;;;15.68;10.30;;;14.60;99.90;;;;;;5131116;27;20053;-72
2023/06/16 04:56:38;;;;;;;17.48;10.73;;;14.60;99.90;;;;;;5114733;28;20079;-70
2023/06/16 04:59:04;;;;;;;19.35;11.10;;;14.60;99.90;;;;;;5115216;28;20046;-70
2023/06/16 05:01:30;;;;;;;19.85;10.80;;;14.80;99.90;;;;;;5132856;28;20042;-70
2023/06/16 05:03:56;;;;;;;18.85;11.35;;;14.80;99.90;;;;;;5096591;28;20055;-70
2023/06/16 05:06:21;;;;;;;15.77;10.38;;;14.80;99.90;;;;;;5097475;28;20051;-71
2023/06/16 05:08:47;;;;;;;16.33;11.05;;;14.90;99.90;;;;;;5098140;28;20123;-69
2023/06/16 05:11:13;;;;;;;16.23;11.20;;;15.00;99.90;;;;;;5114937;28;20504;-70
2023/06/16 05:13:38;;;;;;;17.40;10.93;;;15.10;99.90;;;;;;5114756;28;20091;-70
2023/06/16 05:16:05;;;;;;;18.73;11.57;;;15.20;99.90;;;;;;5111579;28;20127;-70
2023/06/16 05:18:31;;;;;;;16.02;10.82;;;15.20;99.90;;;;;;5130583;28;20047;-70
2023/06/16 05:20:56;;;;;;;18.38;12.60;;;15.30;99.90;;;;;;5115040;28;20051;-70
2023/06/16 05:23:22;;;;;;;21.48;11.65;;;15.50;99.90;;;;;;5125054;28;20044;-70
2023/06/16 05:25:48;;;;;;;17.63;11.77;;;15.50;99.90;;;;;;5104807;28;20518;-70
2023/06/16 05:28:14;;;;;;;21.90;11.70;;;15.50;99.90;;;;;;5115150;28;20043;-70
2023/06/16 05:30:39;;;;;;;19.08;10.27;;;15.60;99.90;;;;;;5114464;28;20518;-70
2023/06/16 05:33:05;;;;;;;20.15;12.10;;;15.70;99.90;;;;;;5098172;28;20146;-71
2023/06/16 05:35:31;;;;;;;17.52;11.45;;;15.80;99.90;;;;;;5114589;28;20402;-69
2023/06/16 05:37:57;;;;;;;18.50;12.27;;;15.80;99.90;;;;;;5114947;28;20514;-70
2023/06/16 05:40:22;;;;;;;20.98;12.07;;;15.90;99.90;;;;;;5097767;28;20050;-70
2023/06/16 05:42:48;;;;;;;20.95;13.25;;;15.90;99.90;;;;;;5114161;28;20043;-69
2023/06/16 05:45:14;;;;;;;19.27;13.20;;;16.00;99.90;;;;;;5114823;28;20082;-69
2023/06/16 05:47:39;;;;;;;17.17;12.80;;;16.10;99.90;;;;;;5114625;28;20078;-69
2023/06/16 05:50:06;;;;;;;21.40;13.37;;;16.10;99.90;;;;;;5133268;28;20107;-69
2023/06/16 05:52:31;;;;;;;22.60;13.88;;;16.30;99.90;;;;;;5096217;28;20047;-69
2023/06/16 05:54:57;;;;;;;22.70;14.30;;;16.30;99.90;;;;;;5093954;28;20060;-70
2023/06/16 05:57:24;;;;;;;25.00;13.17;;;;;;;;;;5113552;28;20096;-68
2023/06/16 05:59:50;;;;;;;22.58;15.07;;;16.50;99.90;;;;;;5132423;28;20686;-70
2023/06/16 06:02:17;;;;;;;22.58;14.57;;;16.60;99.90;;;;;;5113104;28;20131;-70
2023/06/16 06:04:42;;;;;;;22.90;13.88;;;16.60;99.90;;;;;;5134184;27;20055;-69
2023/06/16 06:07:08;;;;;;;22.03;14.30;;;16.70;99.90;;;;;;5083814;27;20447;-69
2023/06/16 06:09:34;;;;;;;22.90;14.25;;;16.80;99.90;;;;;;5118059;27;20367;-69
2023/06/16 06:12:00;;;;;;;20.60;14.23;;;16.70;99.90;;;;;;5117959;27;20100;-69
2023/06/16 06:14:27;;;;;;;20.30;12.83;;;;;;;;;;5135130;27;20047;-69
2023/06/16 06:16:53;;;;;;;18.75;12.90;;;;;;;;;;5115919;27;20088;-69
2023/06/16 06:19:21;;;;;;;21.77;14.27;;;;;;;;;;5118125;27;20384;-69
2023/06/16 06:21:47;;;;;;;20.80;13.00;;;;;;;;;;5117503;27;20346;-69
2023/06/16 06:24:14;;;;;;;19.93;12.47;;;;;;;;;;5117205;27;20043;-70
2023/06/16 06:26:40;;;;;;;24.13;12.55;;;;;;;;;;5117483;27;20051;-69
2023/06/16 06:29:06;;;;;;;22.70;12.25;;;;;;;;;;5117793;27;20042;-71
2023/06/16 06:31:33;;;;;;;18.52;12.10;;;;;;;;;;5135959;27;20062;-69
2023/06/16 06:33:59;;;;;;;19.98;12.32;;;;;;;;;;5115466;27;20123;-69
2023/06/16 06:36:27;;;;;;;17.50;12.48;;;17.60;99.90;;;;;;5117629;27;20100;-70
2023/06/16 06:38:54;;;;;;;18.35;10.90;;;17.60;99.90;;;;;;5135540;27;20045;-70
2023/06/16 06:41:21;;;;;;;;;;;17.70;99.90;;;;;;5136021;27;20054;-70
2023/06/16 06:43:47;;;;;;;16.17;10.68;;;17.90;99.90;;;;;;5116825;27;20424;-70
2023/06/16 06:46:12;;;;;;;17.83;10.90;;;17.90;99.90;;;;;;5115593;27;20051;-68
2023/06/16 06:48:38;;;;;;;16.90;10.47;;;18.00;99.90;;;;;;5117040;27;20406;-71
2023/06/16 06:51:04;;;;;;;16.20;10.03;;;18.10;99.90;;;;;;5100831;27;20051;-70
2023/06/16 06:53:31;;;;;;;17.20;10.23;;;18.20;99.90;;;;;;5100407;27;20123;-70
2023/06/16 06:55:56;;;;;;;;;;;18.30;99.90;;;;;;5115904;27;20055;-70
2023/06/16 06:58:22;;;;;;;14.07;9.80;;;18.40;99.90;;;;;;5135278;27;19919;-70
2023/06/16 07:00:48;;;;;;;18.53;9.57;;;18.50;99.90;;;;;;5099718;27;20467;-70
2023/06/16 07:03:13;;;;;;;16.17;7.97;;;18.60;99.90;;;;;;5135395;27;20039;-69
2023/06/16 07:05:40;;;;;;;10.17;7.70;;;18.70;99.90;;;;;;5134189;27;20594;-71
2023/06/16 07:08:06;;;;;;;12.77;7.70;;;18.80;99.90;;;;;;5098318;27;20050;-70
2023/06/16 07:10:32;;;;;;;12.77;7.80;;;18.90;99.90;;;;;;5100138;27;20418;-70
2023/06/16 07:12:59;;;;;;;15.10;8.25;;;19.00;99.90;;;;;;5134615;27;20263;-71
2023/06/16 07:15:25;;;;;;;15.23;7.97;;;19.20;99.90;;;;;;5096104;28;20043;-69
2023/06/16 07:17:50;;;;;;;15.63;9.00;;;19.20;99.90;;;;;;5115161;27;20103;-69
2023/06/16 07:20:16;;;;;;;18.27;9.03;;;19.30;99.90;;;;;;5116849;27;20043;-70
2023/06/16 07:22:45;;;;;;;11.83;7.77;;;19.40;99.90;;;;;;5134568;27;20086;-70
2023/06/16 07:25:12;;;;;;;12.25;7.30;;;19.50;99.90;;;;;;5134051;27;20078;-70
2023/06/16 07:27:37;;;;;;;11.30;7.78;;;19.50;99.90;;;;;;5116346;27;20047;-71
2023/06/16 07:30:08;;;;;;;11.00;7.57;;;19.70;99.90;;;;;;5099497;27;20116;-70
2023/06/16 07:32:33;;;;;;;11.65;7.20;;;19.70;99.90;;;;;;5099732;27;20058;-71
2023/06/16 07:34:59;;;;;;;11.93;6.53;;;19.80;99.90;;;;;;5134382;27;20047;-69
2023/06/16 07:37:25;;;;;;;10.87;6.27;;;19.90;99.90;;;;;;5133340;27;20047;-70
2023/06/16 07:39:51;;;;;;;14.10;6.23;;;20.00;99.90;;;;;;5116284;27;20054;-69
2023/06/16 07:42:16;;;;;;;19.20;6.50;;;20.20;99.90;;;;;;5116374;27;20470;-70
2023/06/16 07:44:42;;;;;;;26.50;7.70;;;20.30;99.90;;;;;;5134638;27;20043;-71
2023/06/16 07:47:08;;;;;;;14.65;7.03;;;20.30;99.90;;;;;;5087833;28;20079;-69
2023/06/16 07:49:34;;;;;;;10.37;6.10;;;;;;;;;;5095941;28;20136;-70
2023/06/16 07:52:00;;;;;;;12.20;6.43;;;;;;;;;;5113330;28;20394;-70
2023/06/16 07:54:27;;;;;;;8.57;5.72;;;;;;;;;;5112360;28;20414;-69
2023/06/16 07:56:53;;;;;;;10.95;6.80;;;;;;;;;;5113548;27;20054;-69
2023/06/16 07:59:19;;;;;;;10.10;5.10;;;;;;;;;;5099305;27;20081;-70
2023/06/16 08:01:46;;;;;;;9.43;4.60;;;;;;;;;;5115287;27;20039;-74
2023/06/16 08:04:12;;;;;;;6.55;5.00;;;;;;;;;;5132166;27;20047;-71
2023/06/16 08:06:39;;;;;;;11.68;5.63;;;;;;;;;;5115747;27;20130;-71
2023/06/16 08:09:07;;;;;;;10.15;5.57;;;;;;;;;;5133461;27;20051;-69
2023/06/16 08:11:36;;;;;;;11.20;5.55;;;;;;;;;;5099221;27;20043;-71
2023/06/16 08:14:03;;;;;;;8.77;4.80;;;;;;;;;;5114831;27;20403;-69
2023/06/16 08:16:29;;;;;;;8.55;5.65;;;;;;;;;;5134027;27;20043;-70
2023/06/16 08:18:56;;;;;;;8.32;5.50;;;;;;;;;;5132613;27;20375;-70
2023/06/16 08:21:22;;;;;;;7.82;5.20;;;;;;;;;;5133606;27;20050;-70
2023/06/16 08:23:50;;;;;;;9.68;5.28;;;;;;;;;;5133519;27;20043;-72
2023/06/16 08:26:16;;;;;;;8.30;4.82;;;21.80;99.00;;;;;;5097611;27;20403;-72
2023/06/16 08:28:42;;;;;;;12.23;5.30;;;21.80;99.30;;;;;;5098527;27;20050;-70
2023/06/16 08:31:08;;;;;;;6.13;4.37;;;21.90;98.60;;;;;;5115230;27;20333;-70
2023/06/16 08:33:35;;;;;;;8.20;4.83;;;22.00;98.80;;;;;;5134106;27;20054;-70
2023/06/16 08:36:00;;;;;;;11.52;5.07;;;22.10;98.60;;;;;;5114390;28;20043;-70
2023/06/16 08:38:27;;;;;;;8.85;5.20;;;22.10;98.20;;;;;;5115318;27;20046;-70
2023/06/16 08:40:55;;;;;;;8.70;5.22;;;22.10;98.10;;;;;;5132231;27;20435;-70
2023/06/16 08:43:22;;;;;;;6.93;4.70;;;22.20;98.30;;;;;;5133553;27;20138;-69
2023/06/16 08:45:50;;;;;;;9.02;4.47;;;22.30;97.40;;;;;;5132572;27;20090;-68
2023/06/16 08:48:16;;;;;;;9.20;4.93;;;22.40;97.40;;;;;;5133070;27;20376;-70
2023/06/16 08:50:42;;;;;;;5.90;4.50;;;22.50;97.20;;;;;;5133221;28;20051;-70
2023/06/16 08:53:10;;;;;;;6.53;4.10;;;22.50;96.80;;;;;;5097768;28;20051;-69
2023/06/16 08:55:42;;;;;;;8.75;4.03;;;22.70;96.20;;;;;;5131414;28;20052;-69
2023/06/16 08:58:11;;;;;;;7.78;4.35;;;22.80;95.70;;;;;;5133089;28;20073;-71
2023/06/16 09:00:39;;;;;;;6.45;4.20;;;22.80;94.60;;;;;;5082086;28;20130;-69
2023/06/16 09:03:08;;;;;;;8.93;4.95;;;22.80;94.50;;;;;;5132036;28;20051;-71
2023/06/16 09:05:36;;;;;;;11.90;4.07;;;22.80;94.90;;;;;;5113033;28;20047;-71
2023/06/16 09:08:05;;;;;;;5.97;3.72;;;22.90;94.40;;;;;;5130654;28;20106;-69
2023/06/16 09:10:31;;;;;;;6.95;3.70;;;22.90;92.70;;;;;;5129624;28;20044;-67
2023/06/16 09:13:00;;;;;;;7.17;4.20;;;22.80;91.60;;;;;;5114563;28;20513;-70
2023/06/16 09:15:26;;;;;;;6.43;4.05;;;22.80;91.80;;;;;;5133182;28;20047;-70
2023/06/16 09:17:52;;;;;;;8.00;3.92;;;22.80;91.30;;;;;;5098473;28;20058;-70
2023/06/16 09:20:19;;;;;;;7.53;3.90;;;22.90;91.90;;;;;;5116574;28;20546;-70
2023/06/16 09:22:49;;;;;;;9.45;3.85;;;23.10;91.60;;;;;;5094953;28;20079;-68
2023/06/16 09:25:16;;;;;;;7.13;3.65;;;23.10;91.70;;;;;;5096971;28;20383;-71
2023/06/16 09:27:50;;;;;;;8.52;3.92;;;23.10;92.40;;;;;;5114896;28;20043;-69
2023/06/16 09:30:19;;;;;;;6.68;4.20;;;23.30;92.30;;;;;;5130360;28;20457;-69
2023/06/16 09:32:47;;;;;;;6.68;3.67;;;23.40;91.60;;;;;;5132642;28;20055;-70
2023/06/16 09:35:24;;;;;;;7.60;4.13;;;23.40;91.40;;;;;;5132898;28;20043;-70
2023/06/16 09:37:52;;;;;;;6.90;4.65;;;23.50;91.70;;;;;;5132669;27;20058;-68
2023/06/16 09:40:20;;;;;;;7.95;4.30;;;23.60;92.00;;;;;;5115896;27;20051;-69
2023/06/16 09:42:48;;;;;;;6.13;4.10;;;23.70;92.00;;;;;;5118370;27;20058;-68
2023/06/16 09:45:20;;;;;;;8.95;4.13;;;23.60;90.60;;;;;;5101195;27;20483;-70
2023/06/16 09:47:49;;;;;;;6.63;3.22;;;23.80;90.40;;;;;;5137142;27;20089;-70
2023/06/16 09:50:17;;;;;;;7.35;4.20;;;23.80;87.50;;;;;;5116238;27;20490;-71
2023/06/16 09:52:47;;;;;;;5.80;3.40;;;23.80;89.30;;;;;;5102877;27;20047;-71
2023/06/16 09:55:14;;;;;;;8.43;3.78;;;23.90;89.90;;;;;;5117692;27;20555;-70
2023/06/16 09:57:45;;;;;;;6.97;4.00;;;24.00;89.80;;;;;;5136552;27;20490;-71
2023/06/16 10:00:16;;;;;;;7.00;4.18;;;23.80;88.80;;;;;;5116276;27;20448;-70
2023/06/16 10:02:43;;;;;;;6.65;4.13;;;24.00;89.70;;;;;;5136163;27;20100;-70
2023/06/16 10:05:14;;;;;;;8.05;3.80;;;24.00;89.10;;;;;;5100888;27;20062;-69
2023/06/16 10:07:44;;;;;;;11.40;4.20;;;24.10;88.30;;;;;;5136380;27;20055;-71
2023/06/16 10:10:11;;;;;;;7.53;4.30;;;24.20;87.30;;;;;;5116285;27;20047;-70
2023/06/16 10:12:44;;;;;;;6.18;4.03;;;24.10;86.40;;;;;;5118018;27;20559;-70
2023/06/16 10:15:12;;;;;;;6.40;4.30;;;24.30;87.60;;;;;;5100931;27;20051;-69
2023/06/16 10:17:40;;;;;;;7.88;4.40;;;24.30;86.40;;;;;;5118304;27;20074;-69
2023/06/16 10:20:10;;;;;;;6.43;3.97;;;24.30;85.30;;;;;;5115717;27;20066;-68
2023/06/16 10:22:36;;;;;;;6.32;3.55;;;24.20;86.40;;;;;;5117273;27;20042;-71
2023/06/16 10:25:03;;;;;;;8.15;3.80;;;24.30;82.60;;;;;;5136132;27;20058;-67
2023/06/16 10:27:29;;;;;;;5.32;3.28;;;24.30;79.50;;;;;;5100520;27;20399;-68
2023/06/16 10:29:57;;;;;;;6.07;3.58;;;24.30;80.60;;;;;;5135363;27;20181;-69
2023/06/16 10:32:24;;;;;;;8.65;3.65;;;24.40;82.10;;;;;;5115777;27;20078;-70
2023/06/16 10:34:56;;;;;;;9.65;3.20;;;24.50;82.10;;;;;;5117742;27;20047;-69
2023/06/16 10:37:28;;;;;;;6.20;3.03;;;24.60;81.00;;;;;;5134008;27;20039;-70
2023/06/16 10:40:03;;;;;;;8.55;3.83;;;24.60;80.40;;;;;;5135834;27;20143;-69
2023/06/16 10:42:33;;;;;;;5.53;3.33;;;24.60;77.90;;;;;;5133529;27;20078;-71
2023/06/16 10:45:26;;;;;;;4.40;3.05;;;24.60;77.20;;;;;;5134996;27;20126;-69
2023/06/16 10:48:11;;;;;;;7.75;3.45;;;24.70;79.80;;;;;;5117353;27;20711;-69
2023/06/16 10:50:43;;;;;;;9.43;3.30;;;24.80;78.10;;;;;;5116839;27;20082;-70
2023/06/16 10:53:13;;;;;;;5.90;3.42;;;24.70;74.40;;;;;;5094887;27;20051;-71
2023/06/16 10:55:42;;;;;;;5.13;2.92;;;24.70;73.40;;;;;;5100001;27;20454;-69
2023/06/16 10:58:16;;;;;;;5.85;3.00;;;24.70;72.40;;;;;;5135409;27;20051;-70
2023/06/16 11:01:03;;;;;;;11.52;3.08;;;24.70;74.70;;;;;;5135155;27;20050;-70
2023/06/16 11:03:34;;;;;;;5.90;3.00;;;24.90;73.90;;;;;;5096483;28;20042;-69
2023/06/16 11:06:02;;;;;;;4.40;2.65;;;24.80;73.90;;;;;;5092325;27;20135;-70
2023/06/16 11:08:28;;;;;;;5.25;2.58;;;24.70;71.00;;;;;;5116671;27;20130;-70
2023/06/16 11:11:14;;;;;;;;;;;24.80;69.30;;;;;;5117494;27;20094;-69
2023/06/16 11:13:40;;;;;;;4.93;2.40;;;24.90;70.60;;;;;;5134194;27;19970;-70
2023/06/16 11:16:07;;;;;;;4.97;2.30;;;25.00;67.40;;;;;;5110668;27;20108;-69
2023/06/16 11:18:33;;;;;;;7.50;2.10;;;25.10;67.40;;;;;;5134583;27;20051;-69
2023/06/16 11:21:06;;;;;;;6.13;2.40;;;25.00;63.30;;;;;;5116803;27;20055;-70
2023/06/16 11:23:32;;;;;;;7.10;2.40;;;25.10;61.60;;;;;;5128931;27;20535;-70
2023/06/16 11:26:26;;;;;;;4.63;2.00;;;25.00;61.40;;;;;;5100128;27;20099;-71
2023/06/16 11:28:52;;;;;;;6.25;2.50;;;24.90;61.30;;;;;;5113075;27;20059;-70
2023/06/16 11:31:19;;;;;;;6.47;2.30;;;25.00;62.70;;;;;;5099276;27;20559;-69
2023/06/16 11:33:45;;;;;;;5.03;2.40;;;25.20;62.30;;;;;;5113797;27;20051;-70
2023/06/16 11:36:15;;;;;;;5.22;2.30;;;25.10;60.60;;;;;;5112319;27;20050;-70
2023/06/16 11:38:43;;;;;;;5.90;2.10;;;25.20;63.20;;;;;;5116386;27;20070;-70
2023/06/16 11:41:22;;;;;;;3.47;1.95;;;25.20;59.80;;;;;;5116027;27;20554;-71
2023/06/16 11:43:50;;;;;;;6.05;2.30;;;25.10;59.40;;;;;;5116285;27;20086;-71
2023/06/16 11:46:30;;;;;;;3.85;2.20;;;25.20;60.40;;;;;;5115727;27;20095;-71
2023/06/16 11:48:56;;;;;;;5.15;2.20;;;25.20;60.10;;;;;;5099910;27;20371;-71
2023/06/16 11:51:23;;;;;;;7.78;2.20;;;25.20;59.90;;;;;;5099075;27;20050;-74
2023/06/16 11:53:51;;;;;;;3.53;2.10;;;25.00;58.30;;;;;;5134223;27;20051;-68
2023/06/16 11:56:17;;;;;;;8.38;2.20;;;24.90;58.40;;;;;;5133963;27;20044;-74
2023/06/16 11:58:44;;;;;;;4.38;2.00;;;25.10;59.80;;;;;;5116181;27;20095;-73
2023/06/16 12:01:14;;;;;;;5.30;2.00;;;25.30;60.50;;;;;;5115978;27;20140;-68
2023/06/16 12:03:41;;;;;;;5.50;1.98;;;25.40;59.70;;;;;;5099711;28;20076;-70
2023/06/16 12:06:08;;;;;;;3.58;1.92;;;25.40;59.10;;;;;;5104242;27;20054;-70
2023/06/16 12:08:46;;;;;;;4.57;2.20;;;25.60;59.90;;;;;;5132654;27;20047;-71
2023/06/16 12:11:17;;;;;;;6.00;2.08;;;25.40;60.70;;;;;;5107742;27;20043;-68
2023/06/16 12:13:43;;;;;;;6.95;2.00;;;25.50;59.50;;;;;;5098719;27;20043;-68
2023/06/16 12:16:11;;;;;;;6.43;2.60;;;25.60;59.90;;;;;;5112964;27;20494;-69
2023/06/16 12:18:37;;;;;;;5.07;1.75;;;25.50;60.70;;;;;;5092386;27;20050;-70
2023/06/16 12:21:24;;;;;;;4.53;2.33;;;25.70;61.00;;;;;;5098903;27;20047;-69
2023/06/16 12:23:55;;;;;;;4.55;2.15;;;25.60;59.30;;;;;;5113391;28;20048;-70
2023/06/16 12:26:41;;;;;;;3.78;2.20;;;25.80;59.40;;;;;;5095308;28;20394;-72
2023/06/16 12:29:12;;;;;;;7.63;2.40;;;25.80;58.10;;;;;;5095797;28;20043;-69
2023/06/16 12:31:51;;;;;;;4.75;2.10;;;25.80;58.70;;;;;;5115210;27;20036;-69
2023/06/16 12:34:22;;;;;;;4.00;2.15;;;25.70;57.60;;;;;;5078408;28;20056;-69
2023/06/16 12:36:47;;;;;;;3.53;2.15;;;25.90;57.90;;;;;;5095556;28;20043;-69
2023/06/16 12:39:20;;;;;;;4.53;2.13;;;26.00;56.90;;;;;;5113396;28;20441;-70
2023/06/16 12:42:04;;;;;;;4.78;1.80;;;25.90;55.90;;;;;;5077875;28;20309;-70
2023/06/16 12:44:45;;;;;;;4.85;2.08;;;25.90;56.60;;;;;;5112682;28;20048;-71
2023/06/16 12:47:12;;;;;;;6.07;2.28;;;25.90;56.20;;;;;;5118887;27;20054;-71
2023/06/16 12:49:37;;;;;;;5.40;2.08;;;25.90;55.70;;;;;;5098307;27;20043;-69
2023/06/16 12:52:05;;;;;;;5.37;1.90;;;26.00;55.70;;;;;;5115453;28;20051;-70
2023/06/16 12:54:31;;;;;;;4.20;2.35;;;26.00;54.80;;;;;;5097667;28;20358;-69
2023/06/16 12:56:57;;;;;;;4.57;1.98;;;25.90;54.00;;;;;;5081599;28;20318;-70
2023/06/16 12:59:23;;;;;;;5.37;2.20;;;26.00;55.70;;;;;;5098395;28;20058;-69
2023/06/16 13:01:49;;;;;;;5.45;2.05;;;26.00;55.80;;;;;;5133069;28;20043;-69
2023/06/16 13:04:14;;;;;;;5.30;2.10;;;26.00;55.70;;;;;;5115385;28;20122;-68
2023/06/16 13:06:40;;;;;;;6.10;2.20;;;25.90;55.10;;;;;;5133172;28;20547;-69
2023/06/16 13:09:06;;;;;;;5.28;1.90;;;25.90;55.20;;;;;;5115147;28;20042;-69
2023/06/16 13:11:33;;;;;;;4.95;2.17;;;25.80;54.40;;;;;;5064191;28;20055;-71
2023/06/16 13:13:59;;;;;;;3.78;2.25;;;26.00;55.20;;;;;;5100404;27;20063;-69
2023/06/16 13:16:25;;;;;;;3.78;2.10;;;26.00;54.90;;;;;;5119404;27;20399;-70
2023/06/16 13:18:51;;;;;;;7.13;2.40;;;26.20;55.70;;;;;;5118884;27;20054;-70
2023/06/16 13:21:16;;;;;;;4.15;1.80;;;26.30;55.80;;;;;;5101974;27;20035;-69
2023/06/16 13:23:45;;;;;;;5.90;2.10;;;26.40;55.30;;;;;;5118839;27;20352;-70
2023/06/16 13:26:13;;;;;;;6.13;2.20;;;26.30;54.20;;;;;;5118400;27;20403;-69
2023/06/16 13:28:40;;;;;;;5.75;2.28;;;25.90;53.50;;;;;;5099723;27;20065;-71
2023/06/16 13:31:10;;;;;;;5.00;2.30;;;26.00;54.60;;;;;;5135799;27;20050;-69
2023/06/16 13:33:37;;;;;;;5.97;2.28;;;26.00;53.90;;;;;;5118721;27;20129;-69
2023/06/16 13:36:08;;;;;;;4.05;2.40;;;25.90;55.20;;;;;;5118996;27;20122;-70
2023/06/16 13:38:34;;;;;;;5.20;2.22;;;26.00;55.60;;;;;;5117468;27;20062;-69
2023/06/16 13:41:00;;;;;;;6.13;2.45;;;25.80;54.50;;;;;;5101726;27;20504;-69
2023/06/16 13:43:26;;;;;;;6.80;2.30;;;25.90;55.20;;;;;;5119122;27;20050;-69
2023/06/16 13:45:53;;;;;;;4.22;2.17;;;25.80;55.80;;;;;;5118289;27;20047;-70
2023/06/16 13:48:20;;;;;;;5.95;2.50;;;25.90;55.50;;;;;;5115574;27;20062;-73
2023/06/16 13:50:45;;;;;;;4.68;2.35;;;25.90;55.60;;;;;;5136323;27;20521;-71
2023/06/16 13:53:12;;;;;;;5.63;2.10;;;26.00;55.60;;;;;;5136873;27;20047;-69
2023/06/16 13:55:38;;;;;;;5.28;1.98;;;26.00;54.40;;;;;;5101223;27;20491;-72
2023/06/16 13:58:04;;;;;;;4.22;2.10;;;25.80;54.00;;;;;;5136741;27;20047;-70
2023/06/16 14:00:31;;;;;;;4.00;2.35;;;25.90;54.40;;;;;;5118403;27;20542;-69
2023/06/16 14:02:57;;;;;;;8.25;2.35;;;25.90;53.60;;;;;;5101408;27;20055;-71
2023/06/16 14:05:24;;;;;;;4.82;1.95;;;25.80;53.80;;;;;;5101235;27;20055;-70
2023/06/16 14:07:50;;;;;;;3.40;1.98;;;25.80;52.90;;;;;;5100851;27;20054;-71
2023/06/16 14:10:16;;;;;;;5.50;2.30;;;25.80;55.00;;;;;;5101367;27;20421;-69
2023/06/16 14:12:44;;;;;;;4.88;2.15;;;25.80;54.90;;;;;;5117846;27;20100;-69
2023/06/16 14:15:19;;;;;;;3.53;2.03;;;25.80;55.00;;;;;;5118123;27;20051;-71
2023/06/16 14:17:45;;;;;;;3.38;2.00;;;25.80;55.00;;;;;;5136149;27;20092;-71
2023/06/16 14:20:12;;;;;;;5.57;2.22;;;25.80;54.20;;;;;;5118045;27;20121;-70
2023/06/16 14:22:38;;;;;;;7.88;2.22;;;25.90;54.50;;;;;;5135550;27;20057;-71
2023/06/16 14:25:06;;;;;;;4.85;2.10;;;25.90;54.00;;;;;;5135521;27;20043;-69
2023/06/16 14:27:32;;;;;;;5.05;2.17;;;25.90;54.10;;;;;;5118195;27;20436;-70
2023/06/16 14:30:03;;;;;;;5.97;2.20;;;26.10;54.40;;;;;;5117554;27;20531;-69
2023/06/16 14:32:28;;;;;;;4.50;2.00;;;26.00;52.20;;;;;;5117754;27;20043;-70
2023/06/16 14:34:54;;;;;;;4.20;2.10;;;25.60;51.60;;;;;;5117450;27;20053;-71
2023/06/16 14:37:20;;;;;;;5.07;2.10;;;25.80;53.10;;;;;;5117599;27;20504;-69
2023/06/16 14:39:46;;;;;;;4.65;2.00;;;25.90;53.60;;;;;;5117526;27;20284;-71
2023/06/16 14:42:12;;;;;;;9.85;2.20;;;25.80;53.10;;;;;;5130843;27;20096;-69
2023/06/16 14:44:38;;;;;;;3.75;2.20;;;25.60;51.60;;;;;;5097393;28;20552;-67
2023/06/16 14:47:06;;;;;;;7.72;2.05;;;25.80;51.70;;;;;;5125374;27;20051;-68
2023/06/16 14:49:32;;;;;;;2.97;1.80;;;25.90;52.50;;;;;;5135473;27;20047;-71
2023/06/16 14:51:57;;;;;;;5.07;2.30;;;25.80;51.60;;;;;;5135342;27;20041;-69
2023/06/16 14:54:23;;;;;;;4.82;2.22;;;25.70;51.80;;;;;;5135886;27;20339;-68
2023/06/16 14:56:50;;;;;;;4.55;2.10;;;25.80;52.20;;;;;;5117181;27;20062;-69
2023/06/16 14:59:17;;;;;;;4.38;1.92;;;25.90;52.40;;;;;;5117522;27;20423;-70
2023/06/16 15:01:44;;;;;;;6.15;2.60;;;25.80;51.90;;;;;;5134909;27;20123;-70
2023/06/16 15:04:11;;;;;;;4.22;1.65;;;25.90;52.50;;;;;;5135207;27;20054;-72
2023/06/16 15:06:37;;;;;;;;;;;26.00;52.20;;;;;;5135439;27;20124;-69
2023/06/16 15:09:03;;;;;;;;;;;25.80;51.80;;;;;;5117416;27;19924;-71
2023/06/16 15:11:29;;;;;;;;;;;25.70;51.60;;;;;;5136178;27;19920;-67
2023/06/16 15:13:57;;;;;;;4.90;2.00;;;25.50;52.00;;;;;;5134627;27;20397;-68
2023/06/16 15:16:27;;;;;;;4.10;2.17;;;25.70;53.00;;;;;;5117080;27;20047;-72
2023/06/16 15:18:53;;;;;;;6.25;2.42;;;25.70;53.10;;;;;;5134817;27;20053;-69
2023/06/16 15:21:19;;;;;;;5.95;2.60;;;25.80;52.20;;;;;;5116602;27;20478;-68
2023/06/16 15:23:45;;;;;;;6.95;1.80;;;25.80;51.60;;;;;;5135088;27;20039;-68
2023/06/16 15:26:11;;;;;;;5.40;2.30;;;25.80;51.10;;;;;;5135114;27;20147;-71
2023/06/16 15:28:37;;;;;;;4.57;2.20;;;25.80;51.20;;;;;;5100069;27;20082;-71
2023/06/16 15:31:03;;;;;;;4.22;1.95;;;25.70;52.30;;;;;;5134509;27;20288;-67
2023/06/16 15:33:33;;;;;;;4.82;1.90;;;25.70;52.40;;;;;;5099775;27;20134;-70
2023/06/16 15:36:06;;;;;;;4.30;1.95;;;25.60;51.80;;;;;;5116530;27;20047;-69
2023/06/16 15:38:33;;;;;;;5.55;2.40;;;25.40;51.30;;;;;;5116366;27;20042;-70
2023/06/16 15:41:00;;;;;;;;;;;25.60;52.30;;;;;;5098757;27;20065;-69
2023/06/16 15:43:26;;;;;;;4.25;2.25;;;25.40;51.50;;;;;;5099668;27;20013;-71
2023/06/16 15:45:52;;;;;;;6.63;2.17;;;25.50;51.90;;;;;;5116582;27;20050;-72
2023/06/16 15:48:18;;;;;;;5.53;2.45;;;25.50;52.70;;;;;;5099410;27;20053;-71
2023/06/16 15:50:43;;;;;;;6.97;2.13;;;25.50;52.30;;;;;;5116484;27;20436;-68
2023/06/16 15:53:09;;;;;;;6.18;2.08;;;25.60;53.00;;;;;;5133861;27;20506;-72
2023/06/16 15:55:35;;;;;;;6.15;2.28;;;25.40;53.70;;;;;;5115786;27;20545;-70
2023/06/16 15:58:02;;;;;;;3.63;1.80;;;25.40;51.60;;;;;;5133990;27;20039;-69
2023/06/16 16:00:27;;;;;;;;;;;25.20;50.90;;;;;;5099976;27;20054;-70
2023/06/16 16:02:53;;;;;;;;;;;25.20;52.50;;;;;;5134459;27;19919;-70
2023/06/16 16:05:19;;;;;;;4.07;2.17;;;25.10;52.00;;;;;;5115688;27;20326;-70
2023/06/16 16:07:45;;;;;;;4.25;2.20;;;25.10;51.40;;;;;;5133396;27;20127;-68
2023/06/16 16:10:11;;;;;;;5.07;1.90;;;25.10;52.00;;;;;;5093327;27;20096;-70
2023/06/16 16:12:38;;;;;;;4.00;1.90;;;25.10;51.60;;;;;;5132213;27;20039;-71
2023/06/16 16:15:05;;;;;;;4.60;2.13;;;25.20;51.90;;;;;;5112269;27;20039;-72
2023/06/16 16:17:31;;;;;;;;;;;25.20;51.70;;;;;;5133478;27;20046;-68
2023/06/16 16:19:57;;;;;;;6.72;2.35;;;25.10;49.70;;;;;;5133004;27;20401;-69
2023/06/16 16:22:23;;;;;;;5.50;2.00;;;25.20;50.80;;;;;;5131776;27;20038;-69
2023/06/16 16:24:50;;;;;;;5.57;2.30;;;25.10;51.00;;;;;;5096019;27;20047;-69
2023/06/16 16:27:18;;;;;;;4.95;1.80;;;25.00;50.90;;;;;;5133125;27;20126;-69
2023/06/16 16:29:44;;;;;;;3.78;2.00;;;25.10;51.20;;;;;;5132613;27;20047;-73
2023/06/16 16:32:09;;;;;;;5.00;2.00;;;25.10;50.50;;;;;;5114422;27;20239;-70
2023/06/16 16:34:35;;;;;;;4.65;1.80;;;24.90;50.30;;;;;;5131597;27;20048;-71
2023/06/16 16:37:02;;;;;;;6.43;2.30;;;24.90;51.10;;;;;;5132774;27;20044;-70
2023/06/16 16:39:28;;;;;;;7.03;2.00;;;24.90;50.80;;;;;;5114983;28;20054;-67
2023/06/16 16:41:55;;;;;;;4.30;1.63;;;24.60;49.80;;;;;;5114533;28;20039;-71
2023/06/16 16:44:31;;;;;;;4.05;1.92;;;24.60;50.60;;;;;;5133317;27;20126;-71
2023/06/16 16:47:00;;;;;;;6.15;2.22;;;25.40;50.10;;;;;;5114342;28;20043;-67